Kezdőlap
METAR-TAF:

METAR-TAF

Repülőterek :

Vuhan-Tienho nemzetközi repülőtér

Vuhan, Kína

földrajzi szélesség: 30-37N, földrajzi hosszúság: 114-08E, magasság: 23 m

Jelenlegi meteorológiai megfigyelések

A jelentés 48 perccel ezelõtt készült, 20:00 UTC
Déli szél 6 kt
Hőmérséklet 32°C
Páratartalom 59%
Légköri nyomás 1001 hPa
Látótávolság 10 km, vagy több
felhőtlen 1500 m magasságban, és nincs gomolyfelhõ

METAR: ZHHH 192000Z 17003MPS CAVOK 32/23 Q1001 NOSIG

Idő: 04:48 (20:48 UTC)

Előrejelzés

A jelentés 5 órával és 43 perccel ezelõtt készült, 15:05 UTC
Az előrejelzés 19-én 18 óra UTC és 20-én 18 óra UTC között érvényes
Dél-délnyugati szél 8 kt széllökések: 17 kt
Látótávolság: 6000 m

TAF: ZHHH 191505Z 1918/2018 20004G09MPS 6000 NSC TX35/2007Z TN30/1922Z

Meteorológiai megfigyelések és előrejelzések több, mint 4000 repülőtéren (METAR és TAF jelentéseket).

A térképen piros és sárga pontok jelzik az elérhető meteorológiai állomásokat.

Mozgassa az egeret a pont fölött, hogy megjelenjen az állomás neve.

Azután kattintson az időjárási megfigyelések és előrejelzések megtekintéséhez.

A térkép megváltoztatása: kattintson a fekete keresztel jelölt zöld gombra ráközelítéshez, a vonallal jelölt zöld gombra távolításhoz, vagy a zöld nyilakra a szomszédos térképek eléréséhez.


METAR-TAF: